sensor_id;sensor_type;location;lat;lon;timestamp;temperature;humidity
4985;DHT22;2509;49.902;8.600;2023-02-13T00:02:01;5.70;99.90
4985;DHT22;2509;49.902;8.600;2023-02-13T00:05:03;5.60;99.90
4985;DHT22;2509;49.902;8.600;2023-02-13T00:08:05;5.60;99.90
4985;DHT22;2509;49.902;8.600;2023-02-13T00:11:08;5.50;99.90
4985;DHT22;2509;49.902;8.600;2023-02-13T00:14:10;5.50;99.90
4985;DHT22;2509;49.902;8.600;2023-02-13T00:17:12;5.50;99.90
4985;DHT22;2509;49.902;8.600;2023-02-13T00:20:13;5.60;99.90
4985;DHT22;2509;49.902;8.600;2023-02-13T00:23:15;5.60;99.90
4985;DHT22;2509;49.902;8.600;2023-02-13T00:26:18;5.60;99.90
4985;DHT22;2509;49.902;8.600;2023-02-13T00:29:20;5.50;99.90
4985;DHT22;2509;49.902;8.600;2023-02-13T00:32:22;5.50;99.90
4985;DHT22;2509;49.902;8.600;2023-02-13T00:35:24;5.50;99.90
4985;DHT22;2509;49.902;8.600;2023-02-13T00:38:28;5.50;99.90
4985;DHT22;2509;49.902;8.600;2023-02-13T00:41:31;5.40;99.90
4985;DHT22;2509;49.902;8.600;2023-02-13T00:44:33;5.40;99.90
4985;DHT22;2509;49.902;8.600;2023-02-13T00:47:35;5.30;99.90
4985;DHT22;2509;49.902;8.600;2023-02-13T00:50:36;5.30;99.90
4985;DHT22;2509;49.902;8.600;2023-02-13T00:53:38;5.30;99.90
4985;DHT22;2509;49.902;8.600;2023-02-13T00:56:41;5.40;99.90
4985;DHT22;2509;49.902;8.600;2023-02-13T00:59:43;5.40;99.90
4985;DHT22;2509;49.902;8.600;2023-02-13T01:02:45;5.40;99.90
4985;DHT22;2509;49.902;8.600;2023-02-13T01:05:48;5.40;99.90
4985;DHT22;2509;49.902;8.600;2023-02-13T01:08:49;5.40;99.90
4985;DHT22;2509;49.902;8.600;2023-02-13T01:11:52;5.40;99.90
4985;DHT22;2509;49.902;8.600;2023-02-13T01:14:54;5.30;99.90
4985;DHT22;2509;49.902;8.600;2023-02-13T01:17:56;5.30;99.90
4985;DHT22;2509;49.902;8.600;2023-02-13T01:21:00;5.20;99.90
4985;DHT22;2509;49.902;8.600;2023-02-13T01:24:03;5.20;99.90
4985;DHT22;2509;49.902;8.600;2023-02-13T01:27:06;5.10;99.90
4985;DHT22;2509;49.902;8.600;2023-02-13T01:30:10;5.10;99.90
4985;DHT22;2509;49.902;8.600;2023-02-13T01:33:13;5.10;99.90
4985;DHT22;2509;49.902;8.600;2023-02-13T01:36:15;5.10;99.90
4985;DHT22;2509;49.902;8.600;2023-02-13T01:39:16;5.00;99.90
4985;DHT22;2509;49.902;8.600;2023-02-13T01:42:24;5.00;99.90
4985;DHT22;2509;49.902;8.600;2023-02-13T01:45:28;5.00;99.90
4985;DHT22;2509;49.902;8.600;2023-02-13T01:48:30;4.90;99.90
4985;DHT22;2509;49.902;8.600;2023-02-13T01:51:33;4.80;99.90
4985;DHT22;2509;49.902;8.600;2023-02-13T01:54:35;4.80;99.90
4985;DHT22;2509;49.902;8.600;2023-02-13T01:57:39;4.70;99.90
4985;DHT22;2509;49.902;8.600;2023-02-13T02:00:44;4.60;99.90
4985;DHT22;2509;49.902;8.600;2023-02-13T02:03:52;4.60;99.90
4985;DHT22;2509;49.902;8.600;2023-02-13T02:07:00;4.50;99.90
4985;DHT22;2509;49.902;8.600;2023-02-13T02:10:06;4.40;99.90
4985;DHT22;2509;49.902;8.600;2023-02-13T02:13:11;4.30;99.90
4985;DHT22;2509;49.902;8.600;2023-02-13T02:16:13;4.30;99.90
4985;DHT22;2509;49.902;8.600;2023-02-13T02:19:25;4.20;99.90
4985;DHT22;2509;49.902;8.600;2023-02-13T02:22:53;4.20;99.90
4985;DHT22;2509;49.902;8.600;2023-02-13T02:26:20;4.10;99.90
4985;DHT22;2509;49.902;8.600;2023-02-13T02:33:23;4.10;99.90
4985;DHT22;2509;49.902;8.600;2023-02-13T02:36:41;4.10;99.90
4985;DHT22;2509;49.902;8.600;2023-02-13T02:39:52;4.10;99.90
4985;DHT22;2509;49.902;8.600;2023-02-13T02:43:09;4.00;99.90
4985;DHT22;2509;49.902;8.600;2023-02-13T02:46:17;4.00;99.90
4985;DHT22;2509;49.902;8.600;2023-02-13T02:49:24;4.00;99.90
4985;DHT22;2509;49.902;8.600;2023-02-13T02:52:47;3.90;99.90
4985;DHT22;2509;49.902;8.600;2023-02-13T02:56:01;3.90;99.90
4985;DHT22;2509;49.902;8.600;2023-02-13T02:59:10;3.90;99.90
4985;DHT22;2509;49.902;8.600;2023-02-13T03:02:31;3.80;99.90
4985;DHT22;2509;49.902;8.600;2023-02-13T03:05:54;3.70;99.90
4985;DHT22;2509;49.902;8.600;2023-02-13T03:09:14;3.70;99.90
4985;DHT22;2509;49.902;8.600;2023-02-13T03:12:37;3.70;99.90
4985;DHT22;2509;49.902;8.600;2023-02-13T03:15:58;3.80;99.90
4985;DHT22;2509;49.902;8.600;2023-02-13T03:19:24;3.80;99.90
4985;DHT22;2509;49.902;8.600;2023-02-13T03:22:59;3.70;99.90
4985;DHT22;2509;49.902;8.600;2023-02-13T03:26:21;3.70;99.90
4985;DHT22;2509;49.902;8.600;2023-02-13T03:29:42;3.70;99.90
4985;DHT22;2509;49.902;8.600;2023-02-13T03:33:14;3.70;99.90
4985;DHT22;2509;49.902;8.600;2023-02-13T03:36:26;3.80;99.90
4985;DHT22;2509;49.902;8.600;2023-02-13T03:39:58;3.90;99.90
4985;DHT22;2509;49.902;8.600;2023-02-13T03:43:07;4.10;99.90
4985;DHT22;2509;49.902;8.600;2023-02-13T03:46:12;4.10;99.90
4985;DHT22;2509;49.902;8.600;2023-02-13T03:49:19;4.10;99.90
4985;DHT22;2509;49.902;8.600;2023-02-13T03:52:46;4.10;99.90
4985;DHT22;2509;49.902;8.600;2023-02-13T03:55:50;4.20;99.90
4985;DHT22;2509;49.902;8.600;2023-02-13T03:59:18;4.10;99.90
4985;DHT22;2509;49.902;8.600;2023-02-13T04:02:24;4.10;99.90
4985;DHT22;2509;49.902;8.600;2023-02-13T04:05:33;4.00;99.90
4985;DHT22;2509;49.902;8.600;2023-02-13T04:08:37;4.00;99.90
4985;DHT22;2509;49.902;8.600;2023-02-13T04:11:44;4.00;99.90
4985;DHT22;2509;49.902;8.600;2023-02-13T04:14:54;4.00;99.90
4985;DHT22;2509;49.902;8.600;2023-02-13T04:18:04;4.00;99.90
4985;DHT22;2509;49.902;8.600;2023-02-13T04:21:08;4.10;99.90
4985;DHT22;2509;49.902;8.600;2023-02-13T04:24:10;4.10;99.90
4985;DHT22;2509;49.902;8.600;2023-02-13T04:27:14;4.10;99.90
4985;DHT22;2509;49.902;8.600;2023-02-13T04:30:17;4.20;99.90
4985;DHT22;2509;49.902;8.600;2023-02-13T04:33:18;4.20;99.90
4985;DHT22;2509;49.902;8.600;2023-02-13T04:36:20;4.20;99.90
4985;DHT22;2509;49.902;8.600;2023-02-13T04:39:22;4.20;99.90
4985;DHT22;2509;49.902;8.600;2023-02-13T04:42:25;4.30;99.90
4985;DHT22;2509;49.902;8.600;2023-02-13T04:45:27;4.30;99.90
4985;DHT22;2509;49.902;8.600;2023-02-13T04:48:29;4.30;99.90
4985;DHT22;2509;49.902;8.600;2023-02-13T04:51:31;4.30;99.90
4985;DHT22;2509;49.902;8.600;2023-02-13T04:54:32;4.30;99.90
4985;DHT22;2509;49.902;8.600;2023-02-13T04:57:36;4.30;99.90
4985;DHT22;2509;49.902;8.600;2023-02-13T05:00:37;4.30;99.90
4985;DHT22;2509;49.902;8.600;2023-02-13T05:03:39;4.20;99.90
4985;DHT22;2509;49.902;8.600;2023-02-13T05:06:41;4.20;99.90
4985;DHT22;2509;49.902;8.600;2023-02-13T05:09:43;4.30;99.90
4985;DHT22;2509;49.902;8.600;2023-02-13T05:12:46;4.20;99.90
4985;DHT22;2509;49.902;8.600;2023-02-13T05:15:48;4.20;99.90
4985;DHT22;2509;49.902;8.600;2023-02-13T05:18:51;4.20;99.90
4985;DHT22;2509;49.902;8.600;2023-02-13T05:21:54;4.10;99.90
4985;DHT22;2509;49.902;8.600;2023-02-13T05:25:13;4.00;99.90
4985;DHT22;2509;49.902;8.600;2023-02-13T05:28:16;3.90;99.90
4985;DHT22;2509;49.902;8.600;2023-02-13T05:31:35;3.90;99.90
4985;DHT22;2509;49.902;8.600;2023-02-13T05:34:36;3.90;99.90
4985;DHT22;2509;49.902;8.600;2023-02-13T05:37:38;3.90;99.90
4985;DHT22;2509;49.902;8.600;2023-02-13T05:40:40;3.80;99.90
4985;DHT22;2509;49.902;8.600;2023-02-13T05:43:43;3.80;99.90
4985;DHT22;2509;49.902;8.600;2023-02-13T05:46:45;3.80;99.90
4985;DHT22;2509;49.902;8.600;2023-02-13T05:49:46;3.80;99.90
4985;DHT22;2509;49.902;8.600;2023-02-13T05:52:48;3.70;99.90
4985;DHT22;2509;49.902;8.600;2023-02-13T05:55:50;3.70;99.90
4985;DHT22;2509;49.902;8.600;2023-02-13T05:58:54;3.70;99.90
4985;DHT22;2509;49.902;8.600;2023-02-13T06:01:56;3.70;99.90
4985;DHT22;2509;49.902;8.600;2023-02-13T06:04:58;3.60;99.90
4985;DHT22;2509;49.902;8.600;2023-02-13T06:08:00;3.60;99.90
4985;DHT22;2509;49.902;8.600;2023-02-13T06:11:02;3.60;99.90
4985;DHT22;2509;49.902;8.600;2023-02-13T06:14:06;3.50;99.90
4985;DHT22;2509;49.902;8.600;2023-02-13T06:17:07;3.50;99.90
4985;DHT22;2509;49.902;8.600;2023-02-13T06:20:10;3.50;99.90
4985;DHT22;2509;49.902;8.600;2023-02-13T06:23:12;3.50;99.90
4985;DHT22;2509;49.902;8.600;2023-02-13T06:29:26;3.40;99.90
4985;DHT22;2509;49.902;8.600;2023-02-13T06:32:27;3.40;99.90
4985;DHT22;2509;49.902;8.600;2023-02-13T06:35:29;3.40;99.90
4985;DHT22;2509;49.902;8.600;2023-02-13T06:38:31;3.30;99.90
4985;DHT22;2509;49.902;8.600;2023-02-13T06:41:32;3.40;99.90
4985;DHT22;2509;49.902;8.600;2023-02-13T06:44:35;3.40;99.90
4985;DHT22;2509;49.902;8.600;2023-02-13T06:47:40;3.30;99.90
4985;DHT22;2509;49.902;8.600;2023-02-13T06:50:42;3.40;99.90
4985;DHT22;2509;49.902;8.600;2023-02-13T06:53:43;3.40;99.90
4985;DHT22;2509;49.902;8.600;2023-02-13T06:56:45;3.40;99.90
4985;DHT22;2509;49.902;8.600;2023-02-13T06:59:48;3.40;99.90
4985;DHT22;2509;49.902;8.600;2023-02-13T07:02:50;3.40;99.90
4985;DHT22;2509;49.902;8.600;2023-02-13T07:05:52;3.40;99.90
4985;DHT22;2509;49.902;8.600;2023-02-13T07:08:53;3.40;99.90
4985;DHT22;2509;49.902;8.600;2023-02-13T07:11:55;3.40;99.90
4985;DHT22;2509;49.902;8.600;2023-02-13T07:14:58;3.40;99.90
4985;DHT22;2509;49.902;8.600;2023-02-13T07:18:00;3.40;99.90
4985;DHT22;2509;49.902;8.600;2023-02-13T07:21:02;3.50;99.90
4985;DHT22;2509;49.902;8.600;2023-02-13T07:24:04;3.50;99.90
4985;DHT22;2509;49.902;8.600;2023-02-13T07:27:06;3.60;99.90
4985;DHT22;2509;49.902;8.600;2023-02-13T07:30:10;3.60;99.90
4985;DHT22;2509;49.902;8.600;2023-02-13T07:33:12;3.70;99.90
4985;DHT22;2509;49.902;8.600;2023-02-13T07:36:13;3.80;99.90
4985;DHT22;2509;49.902;8.600;2023-02-13T07:39:15;3.80;99.90
4985;DHT22;2509;49.902;8.600;2023-02-13T07:42:17;3.90;99.90
4985;DHT22;2509;49.902;8.600;2023-02-13T07:45:20;4.00;99.90
4985;DHT22;2509;49.902;8.600;2023-02-13T07:48:22;4.10;99.90
4985;DHT22;2509;49.902;8.600;2023-02-13T07:51:23;4.20;99.90
4985;DHT22;2509;49.902;8.600;2023-02-13T07:54:25;4.30;99.90
4985;DHT22;2509;49.902;8.600;2023-02-13T07:57:27;4.40;99.90
4985;DHT22;2509;49.902;8.600;2023-02-13T08:00:30;4.60;99.90
4985;DHT22;2509;49.902;8.600;2023-02-13T08:03:32;4.70;99.90
4985;DHT22;2509;49.902;8.600;2023-02-13T08:06:33;4.80;99.90
4985;DHT22;2509;49.902;8.600;2023-02-13T08:09:35;4.90;99.90
4985;DHT22;2509;49.902;8.600;2023-02-13T08:12:55;5.10;99.90
4985;DHT22;2509;49.902;8.600;2023-02-13T08:15:58;5.20;99.90
4985;DHT22;2509;49.902;8.600;2023-02-13T08:18:59;5.30;99.90
4985;DHT22;2509;49.902;8.600;2023-02-13T08:22:01;5.40;99.90
4985;DHT22;2509;49.902;8.600;2023-02-13T08:25:04;5.60;99.90
4985;DHT22;2509;49.902;8.600;2023-02-13T08:28:07;5.70;99.90
4985;DHT22;2509;49.902;8.600;2023-02-13T08:31:11;5.80;99.90
4985;DHT22;2509;49.902;8.600;2023-02-13T08:34:13;5.90;99.90
4985;DHT22;2509;49.902;8.600;2023-02-13T08:37:15;6.10;99.90
4985;DHT22;2509;49.902;8.600;2023-02-13T08:40:17;6.30;99.90
4985;DHT22;2509;49.902;8.600;2023-02-13T08:43:18;6.40;99.90
4985;DHT22;2509;49.902;8.600;2023-02-13T08:46:22;6.50;99.90
4985;DHT22;2509;49.902;8.600;2023-02-13T08:49:23;6.70;99.90
4985;DHT22;2509;49.902;8.600;2023-02-13T08:52:25;6.90;99.90
4985;DHT22;2509;49.902;8.600;2023-02-13T08:55:28;7.00;99.90
4985;DHT22;2509;49.902;8.600;2023-02-13T08:58:31;7.20;99.90
4985;DHT22;2509;49.902;8.600;2023-02-13T09:01:34;7.30;99.90
4985;DHT22;2509;49.902;8.600;2023-02-13T09:04:36;7.50;99.90
4985;DHT22;2509;49.902;8.600;2023-02-13T09:07:38;7.70;99.90
4985;DHT22;2509;49.902;8.600;2023-02-13T09:10:40;7.80;99.90
4985;DHT22;2509;49.902;8.600;2023-02-13T09:13:43;8.00;99.90
4985;DHT22;2509;49.902;8.600;2023-02-13T09:16:46;8.20;99.90
4985;DHT22;2509;49.902;8.600;2023-02-13T09:19:47;8.30;99.90
4985;DHT22;2509;49.902;8.600;2023-02-13T09:22:49;8.40;99.90
4985;DHT22;2509;49.902;8.600;2023-02-13T09:25:51;8.40;99.90
4985;DHT22;2509;49.902;8.600;2023-02-13T09:28:53;8.50;99.90
4985;DHT22;2509;49.902;8.600;2023-02-13T09:31:56;8.60;99.90
4985;DHT22;2509;49.902;8.600;2023-02-13T09:34:57;8.80;99.90
4985;DHT22;2509;49.902;8.600;2023-02-13T09:37:59;8.90;99.90
4985;DHT22;2509;49.902;8.600;2023-02-13T09:41:04;9.10;99.90
4985;DHT22;2509;49.902;8.600;2023-02-13T09:44:12;9.30;99.90
4985;DHT22;2509;49.902;8.600;2023-02-13T09:47:36;9.40;99.90
4985;DHT22;2509;49.902;8.600;2023-02-13T09:50:39;9.60;99.90
4985;DHT22;2509;49.902;8.600;2023-02-13T09:53:47;9.80;99.90
4985;DHT22;2509;49.902;8.600;2023-02-13T09:56:55;9.90;99.90
4985;DHT22;2509;49.902;8.600;2023-02-13T10:00:05;9.90;99.90
4985;DHT22;2509;49.902;8.600;2023-02-13T10:03:22;10.00;99.90
4985;DHT22;2509;49.902;8.600;2023-02-13T10:06:29;10.20;99.90
4985;DHT22;2509;49.902;8.600;2023-02-13T10:09:37;10.40;99.90
4985;DHT22;2509;49.902;8.600;2023-02-13T10:12:57;10.50;99.90
4985;DHT22;2509;49.902;8.600;2023-02-13T10:16:06;10.70;99.90
4985;DHT22;2509;49.902;8.600;2023-02-13T10:19:21;10.80;99.90
4985;DHT22;2509;49.902;8.600;2023-02-13T10:22:28;10.80;99.90
4985;DHT22;2509;49.902;8.600;2023-02-13T10:25:39;10.80;99.90
4985;DHT22;2509;49.902;8.600;2023-02-13T10:28:47;11.00;99.90
4985;DHT22;2509;49.902;8.600;2023-02-13T10:32:10;11.10;99.90
4985;DHT22;2509;49.902;8.600;2023-02-13T10:35:20;11.10;99.90
4985;DHT22;2509;49.902;8.600;2023-02-13T10:38:26;11.40;99.90
4985;DHT22;2509;49.902;8.600;2023-02-13T10:41:38;11.40;99.90
4985;DHT22;2509;49.902;8.600;2023-02-13T10:44:50;11.50;99.90
4985;DHT22;2509;49.902;8.600;2023-02-13T10:48:05;11.70;99.90
4985;DHT22;2509;49.902;8.600;2023-02-13T10:51:19;11.70;99.90
4985;DHT22;2509;49.902;8.600;2023-02-13T10:54:38;11.80;99.90
4985;DHT22;2509;49.902;8.600;2023-02-13T10:58:02;11.80;99.90
4985;DHT22;2509;49.902;8.600;2023-02-13T11:01:13;12.00;99.90
4985;DHT22;2509;49.902;8.600;2023-02-13T11:04:18;12.20;99.90
4985;DHT22;2509;49.902;8.600;2023-02-13T11:07:23;12.30;99.90
4985;DHT22;2509;49.902;8.600;2023-02-13T11:10:26;12.40;99.90
4985;DHT22;2509;49.902;8.600;2023-02-13T11:13:29;12.60;99.90
4985;DHT22;2509;49.902;8.600;2023-02-13T11:16:38;12.60;99.90
4985;DHT22;2509;49.902;8.600;2023-02-13T11:19:48;12.70;99.90
4985;DHT22;2509;49.902;8.600;2023-02-13T11:22:52;12.70;99.90
4985;DHT22;2509;49.902;8.600;2023-02-13T11:25:56;12.90;99.90
4985;DHT22;2509;49.902;8.600;2023-02-13T11:29:03;13.10;99.90
4985;DHT22;2509;49.902;8.600;2023-02-13T11:32:20;13.30;99.90
4985;DHT22;2509;49.902;8.600;2023-02-13T11:35:27;13.50;99.90
4985;DHT22;2509;49.902;8.600;2023-02-13T11:38:32;13.70;99.90
4985;DHT22;2509;49.902;8.600;2023-02-13T11:41:39;13.90;99.90
4985;DHT22;2509;49.902;8.600;2023-02-13T11:44:42;14.10;99.90
4985;DHT22;2509;49.902;8.600;2023-02-13T11:47:45;14.40;99.90
4985;DHT22;2509;49.902;8.600;2023-02-13T11:50:51;14.70;99.90
4985;DHT22;2509;49.902;8.600;2023-02-13T11:53:54;14.60;99.90
4985;DHT22;2509;49.902;8.600;2023-02-13T11:57:01;15.00;99.90
4985;DHT22;2509;49.902;8.600;2023-02-13T12:00:25;15.40;99.90
4985;DHT22;2509;49.902;8.600;2023-02-13T12:03:29;15.70;99.90
4985;DHT22;2509;49.902;8.600;2023-02-13T12:06:32;16.00;99.90
4985;DHT22;2509;49.902;8.600;2023-02-13T12:09:41;16.30;99.90
4985;DHT22;2509;49.902;8.600;2023-02-13T12:12:46;16.60;99.90
4985;DHT22;2509;49.902;8.600;2023-02-13T12:15:58;16.90;99.90
4985;DHT22;2509;49.902;8.600;2023-02-13T12:19:04;17.10;99.90
4985;DHT22;2509;49.902;8.600;2023-02-13T12:22:21;17.20;99.70
4985;DHT22;2509;49.902;8.600;2023-02-13T12:25:36;17.20;98.70
4985;DHT22;2509;49.902;8.600;2023-02-13T12:29:04;17.60;99.00
4985;DHT22;2509;49.902;8.600;2023-02-13T12:32:17;17.80;98.80
4985;DHT22;2509;49.902;8.600;2023-02-13T12:35:39;17.90;97.50
4985;DHT22;2509;49.902;8.600;2023-02-13T12:38:56;17.90;97.60
4985;DHT22;2509;49.902;8.600;2023-02-13T12:42:12;18.40;96.60
4985;DHT22;2509;49.902;8.600;2023-02-13T12:45:29;18.00;95.00
4985;DHT22;2509;49.902;8.600;2023-02-13T12:48:38;18.00;96.30
4985;DHT22;2509;49.902;8.600;2023-02-13T12:51:47;18.30;95.20
4985;DHT22;2509;49.902;8.600;2023-02-13T12:55:04;18.20;94.90
4985;DHT22;2509;49.902;8.600;2023-02-13T12:58:39;17.70;96.20
4985;DHT22;2509;49.902;8.600;2023-02-13T13:02:02;18.20;95.50
4985;DHT22;2509;49.902;8.600;2023-02-13T13:05:18;18.40;94.60
4985;DHT22;2509;49.902;8.600;2023-02-13T13:08:39;19.00;93.40
4985;DHT22;2509;49.902;8.600;2023-02-13T13:11:51;19.30;92.80
4985;DHT22;2509;49.902;8.600;2023-02-13T13:15:04;19.30;91.80
4985;DHT22;2509;49.902;8.600;2023-02-13T13:18:14;19.20;92.40
4985;DHT22;2509;49.902;8.600;2023-02-13T13:21:28;19.40;91.10
4985;DHT22;2509;49.902;8.600;2023-02-13T13:24:45;19.00;92.00
4985;DHT22;2509;49.902;8.600;2023-02-13T13:27:54;19.60;92.70
4985;DHT22;2509;49.902;8.600;2023-02-13T13:30:58;20.00;90.70
4985;DHT22;2509;49.902;8.600;2023-02-13T13:34:03;20.20;89.60
4985;DHT22;2509;49.902;8.600;2023-02-13T13:37:09;19.70;90.40
4985;DHT22;2509;49.902;8.600;2023-02-13T13:40:26;19.70;90.60
4985;DHT22;2509;49.902;8.600;2023-02-13T13:43:39;19.70;89.80
4985;DHT22;2509;49.902;8.600;2023-02-13T13:46:55;19.50;90.90
4985;DHT22;2509;49.902;8.600;2023-02-13T13:50:00;19.60;90.30
4985;DHT22;2509;49.902;8.600;2023-02-13T13:53:07;19.00;90.90
4985;DHT22;2509;49.902;8.600;2023-02-13T13:56:09;18.50;93.20
4985;DHT22;2509;49.902;8.600;2023-02-13T13:59:16;18.10;93.70
4985;DHT22;2509;49.902;8.600;2023-02-13T14:02:42;17.70;94.10
4985;DHT22;2509;49.902;8.600;2023-02-13T14:06:02;17.50;95.70
4985;DHT22;2509;49.902;8.600;2023-02-13T14:09:37;17.20;96.30
4985;DHT22;2509;49.902;8.600;2023-02-13T14:12:45;17.30;96.30
4985;DHT22;2509;49.902;8.600;2023-02-13T14:15:50;17.20;96.10
4985;DHT22;2509;49.902;8.600;2023-02-13T14:18:53;16.90;96.30
4985;DHT22;2509;49.902;8.600;2023-02-13T14:22:24;16.80;96.90
4985;DHT22;2509;49.902;8.600;2023-02-13T14:25:28;17.00;96.70
4985;DHT22;2509;49.902;8.600;2023-02-13T14:28:31;17.70;95.40
4985;DHT22;2509;49.902;8.600;2023-02-13T14:31:35;17.90;93.60
4985;DHT22;2509;49.902;8.600;2023-02-13T14:34:40;17.80;94.10
4985;DHT22;2509;49.902;8.600;2023-02-13T14:37:48;17.50;94.70
4985;DHT22;2509;49.902;8.600;2023-02-13T14:40:52;17.30;95.30
4985;DHT22;2509;49.902;8.600;2023-02-13T14:43:55;17.20;95.60
4985;DHT22;2509;49.902;8.600;2023-02-13T14:46:58;16.90;96.10
4985;DHT22;2509;49.902;8.600;2023-02-13T14:50:04;17.00;95.30
4985;DHT22;2509;49.902;8.600;2023-02-13T14:53:13;17.20;95.20
4985;DHT22;2509;49.902;8.600;2023-02-13T14:56:19;17.20;95.30
4985;DHT22;2509;49.902;8.600;2023-02-13T14:59:24;17.20;95.60
4985;DHT22;2509;49.902;8.600;2023-02-13T15:02:30;17.10;95.70
4985;DHT22;2509;49.902;8.600;2023-02-13T15:05:34;17.10;96.00
4985;DHT22;2509;49.902;8.600;2023-02-13T15:08:42;16.80;96.10
4985;DHT22;2509;49.902;8.600;2023-02-13T15:11:45;16.40;96.70
4985;DHT22;2509;49.902;8.600;2023-02-13T15:14:47;16.20;97.30
4985;DHT22;2509;49.902;8.600;2023-02-13T15:17:49;16.10;98.10
4985;DHT22;2509;49.902;8.600;2023-02-13T15:20:56;15.80;98.70
4985;DHT22;2509;49.902;8.600;2023-02-13T15:24:01;15.80;98.70
4985;DHT22;2509;49.902;8.600;2023-02-13T15:27:46;15.80;99.00
4985;DHT22;2509;49.902;8.600;2023-02-13T15:31:23;15.70;98.90
4985;DHT22;2509;49.902;8.600;2023-02-13T15:34:27;15.50;99.40
4985;DHT22;2509;49.902;8.600;2023-02-13T15:37:31;15.30;99.40
4985;DHT22;2509;49.902;8.600;2023-02-13T15:40:37;15.20;99.90
4985;DHT22;2509;49.902;8.600;2023-02-13T15:43:42;14.90;99.90
4985;DHT22;2509;49.902;8.600;2023-02-13T15:46:47;14.60;99.90
4985;DHT22;2509;49.902;8.600;2023-02-13T15:49:51;14.30;99.90
4985;DHT22;2509;49.902;8.600;2023-02-13T15:52:54;14.00;99.90
4985;DHT22;2509;49.902;8.600;2023-02-13T15:55:59;13.90;99.90
4985;DHT22;2509;49.902;8.600;2023-02-13T15:59:02;13.60;99.90
4985;DHT22;2509;49.902;8.600;2023-02-13T16:02:09;13.50;99.90
4985;DHT22;2509;49.902;8.600;2023-02-13T16:05:14;13.20;99.90
4985;DHT22;2509;49.902;8.600;2023-02-13T16:08:36;13.00;99.90
4985;DHT22;2509;49.902;8.600;2023-02-13T16:11:43;12.80;99.90
4985;DHT22;2509;49.902;8.600;2023-02-13T16:14:48;12.70;99.90
4985;DHT22;2509;49.902;8.600;2023-02-13T16:17:52;12.50;99.90
4985;DHT22;2509;49.902;8.600;2023-02-13T16:20:54;12.40;99.90
4985;DHT22;2509;49.902;8.600;2023-02-13T16:24:01;12.30;99.90
4985;DHT22;2509;49.902;8.600;2023-02-13T16:27:11;12.20;99.90
4985;DHT22;2509;49.902;8.600;2023-02-13T16:30:30;12.00;99.90
4985;DHT22;2509;49.902;8.600;2023-02-13T16:33:33;12.00;99.90
4985;DHT22;2509;49.902;8.600;2023-02-13T16:36:35;11.80;99.90
4985;DHT22;2509;49.902;8.600;2023-02-13T16:39:38;11.70;99.90
4985;DHT22;2509;49.902;8.600;2023-02-13T16:42:40;11.60;99.90
4985;DHT22;2509;49.902;8.600;2023-02-13T16:45:42;11.50;99.90
4985;DHT22;2509;49.902;8.600;2023-02-13T16:48:45;11.30;99.90
4985;DHT22;2509;49.902;8.600;2023-02-13T16:52:08;11.20;99.90
4985;DHT22;2509;49.902;8.600;2023-02-13T16:55:14;11.00;99.90
4985;DHT22;2509;49.902;8.600;2023-02-13T16:58:17;10.90;99.90
4985;DHT22;2509;49.902;8.600;2023-02-13T17:01:18;10.80;99.90
4985;DHT22;2509;49.902;8.600;2023-02-13T17:04:22;10.70;99.90
4985;DHT22;2509;49.902;8.600;2023-02-13T17:07:25;10.60;99.90
4985;DHT22;2509;49.902;8.600;2023-02-13T17:10:30;10.40;99.90
4985;DHT22;2509;49.902;8.600;2023-02-13T17:13:44;10.30;99.90
4985;DHT22;2509;49.902;8.600;2023-02-13T17:17:14;10.20;99.90
4985;DHT22;2509;49.902;8.600;2023-02-13T17:20:39;10.10;99.90
4985;DHT22;2509;49.902;8.600;2023-02-13T17:28:11;9.90;99.90
4985;DHT22;2509;49.902;8.600;2023-02-13T17:31:38;9.80;99.90
4985;DHT22;2509;49.902;8.600;2023-02-13T17:34:48;9.70;99.90
4985;DHT22;2509;49.902;8.600;2023-02-13T17:37:50;9.60;99.90
4985;DHT22;2509;49.902;8.600;2023-02-13T17:40:52;9.50;99.90
4985;DHT22;2509;49.902;8.600;2023-02-13T17:44:15;9.50;99.90
4985;DHT22;2509;49.902;8.600;2023-02-13T17:47:19;9.40;99.90
4985;DHT22;2509;49.902;8.600;2023-02-13T17:50:24;9.30;99.90
4985;DHT22;2509;49.902;8.600;2023-02-13T17:53:32;9.20;99.90
4985;DHT22;2509;49.902;8.600;2023-02-13T17:56:36;9.20;99.90
4985;DHT22;2509;49.902;8.600;2023-02-13T17:59:58;9.10;99.90
4985;DHT22;2509;49.902;8.600;2023-02-13T18:03:04;9.00;99.90
4985;DHT22;2509;49.902;8.600;2023-02-13T18:06:20;8.90;99.90
4985;DHT22;2509;49.902;8.600;2023-02-13T18:09:33;8.80;99.90
4985;DHT22;2509;49.902;8.600;2023-02-13T18:12:35;8.70;99.90
4985;DHT22;2509;49.902;8.600;2023-02-13T18:19:40;8.60;99.90
4985;DHT22;2509;49.902;8.600;2023-02-13T18:22:42;8.60;99.90
4985;DHT22;2509;49.902;8.600;2023-02-13T18:26:07;8.50;99.90
4985;DHT22;2509;49.902;8.600;2023-02-13T18:29:19;8.50;99.90
4985;DHT22;2509;49.902;8.600;2023-02-13T18:32:28;8.50;99.90
4985;DHT22;2509;49.902;8.600;2023-02-13T18:35:31;8.40;99.90
4985;DHT22;2509;49.902;8.600;2023-02-13T18:38:36;8.40;99.90
4985;DHT22;2509;49.902;8.600;2023-02-13T18:41:40;8.30;99.90
4985;DHT22;2509;49.902;8.600;2023-02-13T18:44:45;8.20;99.90
4985;DHT22;2509;49.902;8.600;2023-02-13T18:47:47;8.20;99.90
4985;DHT22;2509;49.902;8.600;2023-02-13T18:50:50;8.10;99.90
4985;DHT22;2509;49.902;8.600;2023-02-13T18:53:52;8.10;99.90
4985;DHT22;2509;49.902;8.600;2023-02-13T18:56:54;8.00;99.90
4985;DHT22;2509;49.902;8.600;2023-02-13T18:59:58;8.00;99.90
4985;DHT22;2509;49.902;8.600;2023-02-13T19:03:15;7.90;99.90
4985;DHT22;2509;49.902;8.600;2023-02-13T19:06:30;7.90;99.90
4985;DHT22;2509;49.902;8.600;2023-02-13T19:09:32;7.90;99.90
4985;DHT22;2509;49.902;8.600;2023-02-13T19:12:39;7.80;99.90
4985;DHT22;2509;49.902;8.600;2023-02-13T19:15:41;7.80;99.90
4985;DHT22;2509;49.902;8.600;2023-02-13T19:18:44;7.70;99.90
4985;DHT22;2509;49.902;8.600;2023-02-13T19:21:47;7.70;99.90
4985;DHT22;2509;49.902;8.600;2023-02-13T19:24:49;7.60;99.90
4985;DHT22;2509;49.902;8.600;2023-02-13T19:27:51;7.50;99.90
4985;DHT22;2509;49.902;8.600;2023-02-13T19:30:52;7.50;99.90
4985;DHT22;2509;49.902;8.600;2023-02-13T19:33:55;7.40;99.90
4985;DHT22;2509;49.902;8.600;2023-02-13T19:36:58;7.40;99.90
4985;DHT22;2509;49.902;8.600;2023-02-13T19:39:59;7.30;99.90
4985;DHT22;2509;49.902;8.600;2023-02-13T19:43:01;7.30;99.90
4985;DHT22;2509;49.902;8.600;2023-02-13T19:46:04;7.20;99.90
4985;DHT22;2509;49.902;8.600;2023-02-13T19:49:12;7.20;99.90
4985;DHT22;2509;49.902;8.600;2023-02-13T19:52:15;7.10;99.90
4985;DHT22;2509;49.902;8.600;2023-02-13T19:55:17;7.10;99.90
4985;DHT22;2509;49.902;8.600;2023-02-13T19:58:19;7.00;99.90
4985;DHT22;2509;49.902;8.600;2023-02-13T20:01:22;7.00;99.90
4985;DHT22;2509;49.902;8.600;2023-02-13T20:04:24;7.00;99.90
4985;DHT22;2509;49.902;8.600;2023-02-13T20:07:28;7.00;99.90
4985;DHT22;2509;49.902;8.600;2023-02-13T20:10:30;6.90;99.90
4985;DHT22;2509;49.902;8.600;2023-02-13T20:13:32;6.90;99.90
4985;DHT22;2509;49.902;8.600;2023-02-13T20:16:34;6.90;99.90
4985;DHT22;2509;49.902;8.600;2023-02-13T20:19:37;6.90;99.90
4985;DHT22;2509;49.902;8.600;2023-02-13T20:22:40;6.80;99.90
4985;DHT22;2509;49.902;8.600;2023-02-13T20:25:42;6.80;99.90
4985;DHT22;2509;49.902;8.600;2023-02-13T20:28:44;6.70;99.90
4985;DHT22;2509;49.902;8.600;2023-02-13T20:31:46;6.60;99.90
4985;DHT22;2509;49.902;8.600;2023-02-13T20:34:48;6.60;99.90
4985;DHT22;2509;49.902;8.600;2023-02-13T20:37:51;6.50;99.90
4985;DHT22;2509;49.902;8.600;2023-02-13T20:40:53;6.50;99.90
4985;DHT22;2509;49.902;8.600;2023-02-13T20:43:56;6.50;99.90
4985;DHT22;2509;49.902;8.600;2023-02-13T20:46:58;6.50;99.90
4985;DHT22;2509;49.902;8.600;2023-02-13T20:50:00;6.50;99.90